createdAt,value
2018-07-09T00:01:59.847Z,72.28
2018-07-09T00:04:30.913Z,72.23
2018-07-09T00:07:02.866Z,72.63
2018-07-09T00:09:33.813Z,72.03
2018-07-09T00:12:04.846Z,71.84
2018-07-09T00:14:36.151Z,70.62
2018-07-09T00:17:07.280Z,69.60
2018-07-09T00:19:38.441Z,70.84
2018-07-09T00:22:09.529Z,69.10
2018-07-09T00:24:41.821Z,67.48
2018-07-09T00:27:12.837Z,68.92
2018-07-09T00:32:30.208Z,70.13
2018-07-09T00:35:02.584Z,70.15
2018-07-09T00:37:33.694Z,70.50
2018-07-09T00:40:05.074Z,70.57
2018-07-09T00:42:36.599Z,70.73
2018-07-09T00:45:07.346Z,70.52
2018-07-09T00:47:37.874Z,70.48
2018-07-09T00:50:09.123Z,70.18
2018-07-09T00:52:41.591Z,67.52
2018-07-09T00:55:12.936Z,64.34
2018-07-09T00:57:43.810Z,62.18
2018-07-09T01:00:14.575Z,62.19
2018-07-09T01:02:45.499Z,61.67
2018-07-09T01:05:15.962Z,61.06
2018-07-09T01:07:46.847Z,60.58
2018-07-09T01:10:20.248Z,59.71
2018-07-09T01:12:51.466Z,60.16
2018-07-09T01:15:22.460Z,66.43
2018-07-09T01:17:53.888Z,66.71
2018-07-09T01:20:24.812Z,66.09
2018-07-09T01:22:56.105Z,66.85
2018-07-09T01:25:27.222Z,68.05
2018-07-09T01:27:59.334Z,69.05
2018-07-09T01:30:36.698Z,68.14
2018-07-09T01:33:07.669Z,66.53
2018-07-09T01:35:39.137Z,63.85
2018-07-09T01:38:10.166Z,63.94
2018-07-09T01:40:40.631Z,64.63
2018-07-09T01:43:13.235Z,67.52
2018-07-09T01:45:44.133Z,66.35
2018-07-09T01:48:15.111Z,67.16
2018-07-09T01:50:45.901Z,62.45
2018-07-09T01:53:16.992Z,62.25
2018-07-09T01:55:47.958Z,60.81
2018-07-09T01:58:18.753Z,59.32
2018-07-09T02:00:49.348Z,59.51
2018-07-09T02:03:20.108Z,62.19
2018-07-09T02:05:51.003Z,68.40
2018-07-09T02:08:22.069Z,69.57
2018-07-09T02:10:53.880Z,69.87
2018-07-09T02:13:24.766Z,70.42
2018-07-09T02:15:55.531Z,70.72
2018-07-09T02:18:27.440Z,70.64
2018-07-09T02:20:58.046Z,69.62
2018-07-09T02:23:28.754Z,68.51
2018-07-09T02:26:00.082Z,66.43
2018-07-09T02:28:32.501Z,67.87
2018-07-09T02:31:03.624Z,67.61
2018-07-09T02:33:34.568Z,72.13
2018-07-09T02:36:05.387Z,72.51
2018-07-09T02:38:36.307Z,73.62
2018-07-09T02:41:07.284Z,74.28
2018-07-09T02:43:38.276Z,74.50
2018-07-09T02:46:10.675Z,74.26
2018-07-09T02:48:41.585Z,73.34
2018-07-09T02:51:12.179Z,73.76
2018-07-09T02:53:42.968Z,74.55
2018-07-09T02:56:15.029Z,74.29
2018-07-09T02:58:45.958Z,74.48
2018-07-09T03:01:17.193Z,74.50
2018-07-09T03:03:48.958Z,75.56
2018-07-09T03:06:20.483Z,75.91
2018-07-09T03:08:51.312Z,75.30
2018-07-09T03:11:21.689Z,75.33
2018-07-09T03:13:52.806Z,75.28
2018-07-09T03:16:23.650Z,74.43
2018-07-09T03:18:54.764Z,74.58
2018-07-09T03:21:26.735Z,75.13
2018-07-09T03:23:58.091Z,74.73
2018-07-09T03:26:28.961Z,75.44
2018-07-09T03:29:00.284Z,75.26
2018-07-09T03:31:31.179Z,75.25
2018-07-09T03:34:02.118Z,75.85
2018-07-09T03:36:32.460Z,75.71
2018-07-09T03:39:03.581Z,76.21
2018-07-09T03:41:35.689Z,75.24
2018-07-09T03:44:06.961Z,75.07
2018-07-09T03:46:37.947Z,74.82
2018-07-09T03:49:08.743Z,74.53
2018-07-09T03:51:39.652Z,74.15
2018-07-09T03:54:10.580Z,73.66
2018-07-09T03:56:42.040Z,72.53
2018-07-09T03:59:13.711Z,72.71
2018-07-09T04:01:44.565Z,72.75
2018-07-09T04:04:15.527Z,72.47
2018-07-09T04:06:46.327Z,73.00
2018-07-09T04:09:17.965Z,72.79
2018-07-09T04:11:49.359Z,73.04
2018-07-09T04:14:20.091Z,72.80
2018-07-09T04:16:52.152Z,72.36
2018-07-09T04:19:22.996Z,72.71
2018-07-09T04:21:53.841Z,72.46
2018-07-09T04:24:25.051Z,73.02
2018-07-09T04:26:56.332Z,74.16
2018-07-09T04:29:27.181Z,74.80
2018-07-09T04:31:57.705Z,74.64
2018-07-09T04:34:29.965Z,74.35
2018-07-09T04:37:01.714Z,74.05
2018-07-09T04:39:32.738Z,74.13
2018-07-09T04:42:04.962Z,73.23
2018-07-09T04:44:36.028Z,72.82
2018-07-09T04:47:06.926Z,72.28
2018-07-09T04:49:38.087Z,72.41
2018-07-09T04:52:08.919Z,72.64
2018-07-09T04:54:40.479Z,72.37
2018-07-09T04:57:12.433Z,71.60
2018-07-09T04:59:43.738Z,71.23
2018-07-09T05:02:14.823Z,70.34
2018-07-09T05:04:47.141Z,70.17
2018-07-09T05:07:18.088Z,69.88
2018-07-09T05:09:49.191Z,69.85
2018-07-09T05:12:20.362Z,68.65
2018-07-09T05:14:51.646Z,67.56
2018-07-09T05:17:22.637Z,67.48
2018-07-09T05:19:53.683Z,66.08
2018-07-09T05:22:25.641Z,65.24
2018-07-09T05:24:56.641Z,64.48
2018-07-09T05:27:27.562Z,64.50
2018-07-09T05:29:58.623Z,64.15
2018-07-09T05:32:29.752Z,63.68
2018-07-09T05:35:00.967Z,64.30
2018-07-09T05:37:32.480Z,64.14
2018-07-09T05:40:04.617Z,63.94
2018-07-09T05:42:35.795Z,63.06
2018-07-09T05:45:07.767Z,63.36
2018-07-09T05:47:38.811Z,63.13
2018-07-09T05:50:10.363Z,63.36
2018-07-09T05:52:41.636Z,63.25
2018-07-09T05:55:13.234Z,63.00
2018-07-09T05:57:45.434Z,62.73
2018-07-09T06:00:17.260Z,62.30
2018-07-09T06:02:48.724Z,61.66
2018-07-09T06:05:19.756Z,61.36
2018-07-09T06:07:51.952Z,61.35
2018-07-09T06:10:23.755Z,59.97
2018-07-09T06:12:56.922Z,59.36
2018-07-09T06:15:29.057Z,59.26
2018-07-09T06:18:00.577Z,58.46
2018-07-09T06:20:32.614Z,56.07
2018-07-09T06:23:05.568Z,51.68
2018-07-09T06:25:37.150Z,48.01
2018-07-09T06:28:09.400Z,45.84
2018-07-09T06:30:40.521Z,43.57
2018-07-09T06:33:11.767Z,41.81
2018-07-09T06:35:42.917Z,39.56
2018-07-09T06:38:13.842Z,38.76
2018-07-09T06:40:45.055Z,38.69
2018-07-09T06:43:16.443Z,37.96
2018-07-09T06:45:48.525Z,37.16
2018-07-09T06:48:19.588Z,36.52
2018-07-09T06:50:50.792Z,34.41
2018-07-09T06:53:21.955Z,33.03
2018-07-09T06:55:53.007Z,31.09
2018-07-09T06:58:24.028Z,31.86
2018-07-09T07:00:55.303Z,30.50
2018-07-09T07:03:27.685Z,30.74
2018-07-09T07:06:00.229Z,30.15
2018-07-09T07:08:32.709Z,30.56
2018-07-09T07:11:04.228Z,30.60
2018-07-09T07:13:35.248Z,31.31
2018-07-09T07:16:06.937Z,30.27
2018-07-09T07:18:39.012Z,29.50
2018-07-09T07:21:10.951Z,28.77
2018-07-09T07:23:42.055Z,27.66
2018-07-09T07:26:14.052Z,27.33
2018-07-09T07:28:45.585Z,27.99
2018-07-09T07:31:17.719Z,27.74
2018-07-09T07:33:50.046Z,26.95
2018-07-09T07:36:22.375Z,27.92
2018-07-09T07:38:56.111Z,26.24
2018-07-09T07:41:28.105Z,24.94
2018-07-09T07:44:00.525Z,24.62
2018-07-09T07:46:32.265Z,25.25
2018-07-09T07:49:03.608Z,24.70
2018-07-09T07:51:36.486Z,22.75
2018-07-09T07:54:08.286Z,22.50
2018-07-09T07:56:40.310Z,22.19
2018-07-09T07:59:14.091Z,21.78
2018-07-09T08:01:48.008Z,20.98
2018-07-09T08:04:20.281Z,20.33
2018-07-09T08:06:52.188Z,19.61
2018-07-09T08:09:25.472Z,19.51
2018-07-09T08:12:59.662Z,19.52
2018-07-09T08:14:29.524Z,23.45
2018-07-09T08:17:00.924Z,20.54
2018-07-09T08:19:32.511Z,21.43
2018-07-09T08:22:04.975Z,21.04
2018-07-09T08:24:37.018Z,19.38
2018-07-09T08:27:09.504Z,18.79
2018-07-09T08:29:40.893Z,19.25
2018-07-09T08:32:13.169Z,18.71
2018-07-09T08:34:45.663Z,19.66
2018-07-09T08:37:18.148Z,19.81
2018-07-09T08:39:49.958Z,19.73
2018-07-09T08:42:22.600Z,20.57
2018-07-09T08:44:54.055Z,19.99
2018-07-09T08:47:26.709Z,19.00
2018-07-09T08:49:58.764Z,18.18
2018-07-09T08:52:30.826Z,18.40
2018-07-09T08:55:02.529Z,17.72
2018-07-09T08:57:35.015Z,18.67
2018-07-09T09:00:06.913Z,16.91
2018-07-09T09:02:38.472Z,16.57
2018-07-09T09:05:10.268Z,16.83
2018-07-09T09:07:44.739Z,16.85
2018-07-09T09:10:17.460Z,16.87
2018-07-09T09:12:49.028Z,16.93
2018-07-09T09:15:21.253Z,17.08
2018-07-09T09:17:52.611Z,17.02
2018-07-09T09:20:23.791Z,16.66
2018-07-09T09:22:56.089Z,17.11
2018-07-09T09:25:28.465Z,18.05
2018-07-09T09:27:59.835Z,18.36
2018-07-09T09:30:32.117Z,17.66
2018-07-09T09:33:04.973Z,17.25
2018-07-09T09:35:37.435Z,15.73
2018-07-09T09:38:09.767Z,18.17
2018-07-09T09:40:44.488Z,18.18
2018-07-09T09:43:17.075Z,17.75
2018-07-09T09:45:50.600Z,17.55
2018-07-09T09:48:23.257Z,15.98
2018-07-09T09:50:54.894Z,16.00
2018-07-09T09:53:28.538Z,15.31
2018-07-09T09:56:01.150Z,15.54
2018-07-09T09:58:33.338Z,15.51
2018-07-09T10:01:06.910Z,15.78
2018-07-09T10:03:38.716Z,16.55
2018-07-09T10:06:11.948Z,16.38
2018-07-09T10:08:44.564Z,17.58
2018-07-09T10:11:16.413Z,17.57
2018-07-09T10:13:48.272Z,16.72
2018-07-09T10:16:21.100Z,16.14
2018-07-09T10:18:54.318Z,15.43
2018-07-09T10:21:32.173Z,14.70
2018-07-09T10:24:06.969Z,15.39
2018-07-09T10:26:45.820Z,14.60
2018-07-09T10:29:17.640Z,13.35
2018-07-09T10:31:50.262Z,13.67
2018-07-09T10:34:22.170Z,14.40
2018-07-09T10:36:55.856Z,15.58
2018-07-09T10:39:27.069Z,14.18
2018-07-09T10:41:58.410Z,13.67
2018-07-09T10:44:28.911Z,14.00
2018-07-09T10:47:00.530Z,13.39
2018-07-09T10:49:32.501Z,13.57
2018-07-09T10:52:04.208Z,15.37
2018-07-09T10:54:36.018Z,15.44
2018-07-09T10:57:14.386Z,15.17
2018-07-09T10:59:45.396Z,14.37
2018-07-09T11:02:18.014Z,15.80
2018-07-09T11:04:49.866Z,16.50
2018-07-09T11:07:20.762Z,16.24
2018-07-09T11:09:52.057Z,15.02
2018-07-09T11:12:27.544Z,14.13
2018-07-09T11:14:58.549Z,14.79
2018-07-09T11:17:30.662Z,15.27
2018-07-09T11:20:02.142Z,16.73
2018-07-09T11:22:45.295Z,16.24
2018-07-09T11:25:40.488Z,15.16
2018-07-09T11:28:11.566Z,15.21
2018-07-09T11:30:42.972Z,14.17
2018-07-09T11:33:14.281Z,14.62
2018-07-09T11:35:47.040Z,14.83
2018-07-09T11:38:18.995Z,15.82
2018-07-09T11:40:50.798Z,16.82
2018-07-09T11:43:24.527Z,16.72
2018-07-09T11:45:55.332Z,16.81
2018-07-09T11:48:27.097Z,17.75
2018-07-09T11:51:02.039Z,17.17
2018-07-09T11:53:33.312Z,16.51
2018-07-09T11:56:04.953Z,16.04
2018-07-09T11:58:37.792Z,17.07
2018-07-09T12:01:09.162Z,16.92
2018-07-09T12:03:42.632Z,17.07
2018-07-09T12:06:17.075Z,16.06
2018-07-09T12:08:49.573Z,17.78
2018-07-09T12:11:22.097Z,16.08
2018-07-09T12:13:54.499Z,14.74
2018-07-09T12:16:27.151Z,14.57
2018-07-09T12:18:59.204Z,14.35
2018-07-09T12:21:31.424Z,14.27
2018-07-09T12:24:03.182Z,13.87
2018-07-09T12:26:34.053Z,14.14
2018-07-09T12:29:05.979Z,14.11
2018-07-09T12:31:38.333Z,14.23
2018-07-09T12:34:10.955Z,14.54
2018-07-09T12:36:49.870Z,15.07
2018-07-09T12:39:22.073Z,14.68
2018-07-09T12:41:53.613Z,14.86
2018-07-09T12:44:25.350Z,16.67
2018-07-09T12:46:56.501Z,18.13
2018-07-09T12:49:29.969Z,19.60
2018-07-09T12:52:01.687Z,19.33
2018-07-09T12:54:33.387Z,19.73
2018-07-09T12:57:04.347Z,18.36
2018-07-09T12:59:38.197Z,18.29
2018-07-09T13:02:09.583Z,17.77
2018-07-09T13:04:43.387Z,17.39
2018-07-09T13:07:15.495Z,17.01
2018-07-09T13:09:47.530Z,15.06
2018-07-09T13:12:28.235Z,14.84
2018-07-09T13:15:01.861Z,15.04
2018-07-09T13:17:35.995Z,14.96
2018-07-09T13:20:09.185Z,15.46
2018-07-09T13:22:41.815Z,14.90
2018-07-09T13:25:14.194Z,14.37
2018-07-09T13:27:47.779Z,15.16
2018-07-09T13:30:21.126Z,14.51
2018-07-09T13:32:52.926Z,14.08
2018-07-09T13:35:25.124Z,14.32
2018-07-09T13:37:57.637Z,15.07
2018-07-09T13:40:29.883Z,13.87
2018-07-09T13:43:01.498Z,14.07
2018-07-09T13:45:34.590Z,14.53
2018-07-09T13:48:06.379Z,15.49
2018-07-09T13:50:37.901Z,15.34
2018-07-09T13:53:08.899Z,15.29
2018-07-09T13:55:40.169Z,16.47
2018-07-09T13:58:11.958Z,17.20
2018-07-09T14:00:44.289Z,17.79
2018-07-09T14:03:15.745Z,18.09
2018-07-09T14:05:47.960Z,17.84
2018-07-09T14:08:18.987Z,17.30
2018-07-09T14:10:50.057Z,17.22
2018-07-09T14:13:21.447Z,17.12
2018-07-09T14:15:53.396Z,17.98
2018-07-09T14:18:26.474Z,18.64
2018-07-09T14:20:57.974Z,18.26
2018-07-09T14:23:29.297Z,18.04
2018-07-09T14:26:02.079Z,18.11
2018-07-09T14:28:33.960Z,18.01
2018-07-09T14:31:05.891Z,19.31
2018-07-09T14:33:38.534Z,18.82
2018-07-09T14:36:10.085Z,18.20
2018-07-09T14:38:42.751Z,18.43
2018-07-09T14:41:14.331Z,19.77
2018-07-09T14:43:45.378Z,20.09
2018-07-09T14:46:16.044Z,20.16
2018-07-09T14:48:46.973Z,19.71
2018-07-09T14:51:18.676Z,19.03
2018-07-09T14:53:49.290Z,19.52
2018-07-09T14:56:19.867Z,20.29
2018-07-09T14:58:51.278Z,18.94
2018-07-09T15:01:22.013Z,18.38
2018-07-09T15:03:53.290Z,18.25
2018-07-09T15:06:24.825Z,18.72
2018-07-09T15:08:56.311Z,19.88
2018-07-09T15:11:26.723Z,21.00
2018-07-09T15:28:21.394Z,18.95
2018-07-09T15:30:52.998Z,19.85
2018-07-09T15:33:23.703Z,20.34
2018-07-09T15:35:54.524Z,20.41
2018-07-09T15:38:25.566Z,21.02
2018-07-09T15:40:57.965Z,19.67
2018-07-09T15:43:45.191Z,19.33
2018-07-09T15:46:17.837Z,20.04
2018-07-09T15:48:49.431Z,19.93
2018-07-09T15:51:20.764Z,21.64
2018-07-09T15:53:53.498Z,20.56
2018-07-09T15:56:25.940Z,19.27
2018-07-09T15:58:57.066Z,19.42
2018-07-09T16:01:28.078Z,19.73
2018-07-09T16:03:59.136Z,19.80
2018-07-09T16:06:33.212Z,20.67
2018-07-09T16:09:06.328Z,19.54
2018-07-09T16:11:39.616Z,19.23
2018-07-09T16:14:10.750Z,19.82
2018-07-09T16:16:41.457Z,20.11
2018-07-09T16:19:12.263Z,20.36
2018-07-09T16:21:42.801Z,20.55
2018-07-09T16:24:13.620Z,20.57
2018-07-09T16:26:44.264Z,21.45
2018-07-09T16:29:15.822Z,21.71
2018-07-09T16:31:46.636Z,21.59
2018-07-09T16:34:16.987Z,22.94
2018-07-09T16:36:49.593Z,23.32
2018-07-09T16:39:20.634Z,23.36
2018-07-09T16:41:51.044Z,22.58
2018-07-09T16:44:22.534Z,22.34
2018-07-09T16:46:53.678Z,23.09
2018-07-09T16:49:25.388Z,23.25
2018-07-09T16:51:56.492Z,22.45
2018-07-09T16:54:27.075Z,23.16
2018-07-09T16:56:57.448Z,22.89
2018-07-09T16:59:27.506Z,22.84
2018-07-09T17:01:58.331Z,23.36
2018-07-09T17:04:29.082Z,23.36
2018-07-09T17:07:00.606Z,23.29
2018-07-09T17:09:32.790Z,23.61
2018-07-09T17:12:04.077Z,23.61
2018-07-09T17:14:36.033Z,24.64
2018-07-09T17:17:07.492Z,23.97
2018-07-09T17:19:39.113Z,23.96
2018-07-09T17:22:09.937Z,24.33
2018-07-09T17:24:42.257Z,23.68
2018-07-09T17:27:15.130Z,24.69
2018-07-09T17:29:46.950Z,24.52
2018-07-09T17:32:18.039Z,24.40
2018-07-09T17:34:49.216Z,24.80
2018-07-09T17:37:20.959Z,24.99
2018-07-09T17:39:51.988Z,24.55
2018-07-09T17:44:53.278Z,25.91
2018-07-09T17:47:23.856Z,27.08
2018-07-09T17:49:54.863Z,27.62
2018-07-09T17:52:25.317Z,27.95
2018-07-09T17:54:55.845Z,29.58
2018-07-09T17:57:26.983Z,29.82
2018-07-09T17:59:58.120Z,31.38
2018-07-09T18:02:29.716Z,32.21
2018-07-09T18:05:00.665Z,33.56
2018-07-09T18:07:31.476Z,32.04
2018-07-09T18:10:02.752Z,32.73
2018-07-09T18:12:33.996Z,34.49
2018-07-09T18:15:05.448Z,34.59
2018-07-09T18:17:39.376Z,35.34
2018-07-09T18:20:11.023Z,35.49
2018-07-09T18:22:41.395Z,35.78
2018-07-09T18:25:12.770Z,35.66
2018-07-09T18:27:45.038Z,36.28
2018-07-09T18:30:18.705Z,37.14
2018-07-09T18:32:50.829Z,36.72
2018-07-09T18:35:23.361Z,37.02
2018-07-09T18:37:55.098Z,37.97
2018-07-09T18:40:27.130Z,37.42
2018-07-09T18:42:58.760Z,38.24
2018-07-09T18:45:30.067Z,39.42
2018-07-09T18:48:02.490Z,39.30
2018-07-09T18:50:36.216Z,39.33
2018-07-09T18:53:08.290Z,40.41
2018-07-09T18:55:39.875Z,40.08
2018-07-09T18:58:12.369Z,40.39
2018-07-09T19:00:44.307Z,40.42
2018-07-09T19:03:17.310Z,39.95
2018-07-09T19:07:06.685Z,40.87
2018-07-09T19:09:39.372Z,42.24
2018-07-09T19:12:12.187Z,45.21
2018-07-09T19:14:46.119Z,46.14
2018-07-09T19:18:11.751Z,45.33
2018-07-09T19:21:36.391Z,45.32
2018-07-09T19:24:07.913Z,46.50
2018-07-09T19:26:36.927Z,46.22
2018-07-09T19:29:05.518Z,46.56
2018-07-09T19:31:35.367Z,46.48
2018-07-09T19:34:04.246Z,46.30
2018-07-09T19:36:33.043Z,46.08
2018-07-09T19:39:01.756Z,46.30
2018-07-09T19:41:30.640Z,45.62
2018-07-09T19:44:00.202Z,45.25
2018-07-09T19:46:29.318Z,45.53
2018-07-09T19:48:58.618Z,46.39
2018-07-09T19:51:28.659Z,46.63
2018-07-09T19:53:57.559Z,47.55
2018-07-09T19:56:26.639Z,47.48
2018-07-09T19:58:55.481Z,48.22
2018-07-09T20:01:25.876Z,48.04
2018-07-09T20:03:57.740Z,48.67
2018-07-09T20:06:27.551Z,48.23
2018-07-09T20:10:02.882Z,48.56
2018-07-09T20:12:37.193Z,49.21
2018-07-09T20:15:11.065Z,49.23
2018-07-09T20:17:44.273Z,48.62
2018-07-09T20:20:13.496Z,47.71
2018-07-09T20:22:48.901Z,48.30
2018-07-09T20:25:17.656Z,48.34
2018-07-09T20:27:46.412Z,48.97
2018-07-09T20:30:14.983Z,48.82
2018-07-09T20:32:43.802Z,48.63
2018-07-09T20:35:12.390Z,48.60
2018-07-09T20:37:41.158Z,50.26
2018-07-09T20:40:11.025Z,50.56
2018-07-09T20:42:40.273Z,51.43
2018-07-09T20:45:08.956Z,51.87
2018-07-09T20:47:37.663Z,51.55
2018-07-09T20:50:07.205Z,52.16
2018-07-09T20:52:35.875Z,51.79
2018-07-09T20:55:04.766Z,51.91
2018-07-09T20:57:33.423Z,52.42
2018-07-09T21:00:02.527Z,51.68
2018-07-09T21:02:31.321Z,52.04
2018-07-09T21:05:00.180Z,52.74
2018-07-09T21:07:28.820Z,52.62
2018-07-09T21:09:57.356Z,52.82
2018-07-09T21:12:27.550Z,50.64
2018-07-09T21:14:56.469Z,58.49
2018-07-09T21:17:25.073Z,59.05
2018-07-09T21:19:53.343Z,59.43
2018-07-09T21:22:21.644Z,58.89
2018-07-09T21:24:49.967Z,58.40
2018-07-09T21:27:18.286Z,55.25
2018-07-09T21:29:46.555Z,54.72
2018-07-09T21:32:14.806Z,55.31
2018-07-09T21:34:43.190Z,55.95
2018-07-09T21:37:11.776Z,55.56
2018-07-09T21:39:40.550Z,55.46
2018-07-09T21:42:08.886Z,55.39
2018-07-09T21:44:37.127Z,54.73
2018-07-09T21:47:05.412Z,55.56
2018-07-09T21:49:34.234Z,57.71
2018-07-09T21:52:03.251Z,59.30
2018-07-09T21:54:32.694Z,59.75
2018-07-09T21:57:01.023Z,58.94
2018-07-09T21:59:29.346Z,56.97
2018-07-09T22:01:57.707Z,57.24
2018-07-09T22:04:25.960Z,58.90
2018-07-09T22:06:54.414Z,60.44
2018-07-09T22:09:22.704Z,59.86
2018-07-09T22:33:28.863Z,62.47
2018-07-09T22:35:59.271Z,62.97
2018-07-09T22:38:29.344Z,63.51
2018-07-09T22:40:59.950Z,63.88
2018-07-09T22:44:43.249Z,63.07
2018-07-09T22:47:13.953Z,59.94
2018-07-09T22:49:44.746Z,60.40
2018-07-09T22:52:15.403Z,63.58
2018-07-09T22:54:47.177Z,59.74
2018-07-09T22:57:17.610Z,60.55
2018-07-09T22:59:47.836Z,62.68
2018-07-09T23:02:18.353Z,63.59
2018-07-09T23:04:49.572Z,62.12
2018-07-09T23:07:20.252Z,61.61
2018-07-09T23:10:35.550Z,62.88
2018-07-09T23:13:31.130Z,62.32
2018-07-09T23:16:49.485Z,63.27
2018-07-09T23:22:18.978Z,65.88
2018-07-09T23:24:47.113Z,65.80
2018-07-09T23:27:15.646Z,66.18
2018-07-09T23:29:43.754Z,66.71
2018-07-09T23:32:11.952Z,66.95
2018-07-09T23:34:40.179Z,66.88
2018-07-09T23:37:08.359Z,68.12
2018-07-09T23:39:36.538Z,67.82
2018-07-09T23:42:04.757Z,68.06
2018-07-09T23:44:33.005Z,68.59
2018-07-09T23:47:01.594Z,69.07
2018-07-09T23:49:29.751Z,69.31
2018-07-09T23:51:58.911Z,69.72
2018-07-09T23:54:27.089Z,70.41
2018-07-09T23:58:13.213Z,70.80
